SAS73A ENGM-EKCH
Flight info
| Callsign | SAS73A |
|---|---|
| Flight time | 0h 47m |
| Altitude | 37000 |
| Route | OKSAT L996 KELIN DCT TOPLA L996 ERNOV |
| Aircraft | A319/M-SDE3FGIJ1RWXY/LB1 |
Departure
| Time | 2026-05-07 19:08 |
|---|---|
| Airport | Oslo-Gardermoen International Airport (ENGM) |
Arrival
| Time | 2026-05-07 19:56 |
|---|---|
| Airport | Copenhagen Kastrup Airport (EKCH) |
| Time | Latitude | Longitude | Altitude | Speed | Heading |
|---|---|---|---|---|---|
| 2026-05-07 18:46 | 60.19575 | 11.09430 | 679 ft | 0 kts | 195° |
| 2026-05-07 18:59 | 60.19581 | 11.09433 | 679 ft | 4 kts | 195° |
| 2026-05-07 19:00 | 60.19607 | 11.09448 | 679 ft | 3 kts | 195° |
| 2026-05-07 19:00 | 60.19627 | 11.09459 | 678 ft | 4 kts | 196° |
| 2026-05-07 19:00 | 60.19653 | 11.09472 | 676 ft | 4 kts | 183° |
| 2026-05-07 19:00 | 60.19673 | 11.09466 | 678 ft | 4 kts | 113° |
| 2026-05-07 19:01 | 60.19680 | 11.09423 | 676 ft | 1 kts | 106° |
| 2026-05-07 19:01 | 60.19680 | 11.09421 | 676 ft | 0 kts | 106° |
| 2026-05-07 19:02 | 60.19680 | 11.09422 | 676 ft | 0 kts | 106° |
| 2026-05-07 19:03 | 60.19673 | 11.09473 | 677 ft | 8 kts | 103° |
| 2026-05-07 19:03 | 60.19697 | 11.09605 | 679 ft | 15 kts | 19° |
| 2026-05-07 19:03 | 60.19809 | 11.09669 | 679 ft | 18 kts | 15° |
| 2026-05-07 19:04 | 60.19939 | 11.09742 | 678 ft | 17 kts | 15° |
| 2026-05-07 19:04 | 60.19998 | 11.09843 | 679 ft | 12 kts | 96° |
| 2026-05-07 19:04 | 60.19973 | 11.10016 | 679 ft | 12 kts | 107° |
| 2026-05-07 19:04 | 60.19956 | 11.10129 | 679 ft | 7 kts | 107° |
| 2026-05-07 19:05 | 60.19940 | 11.10241 | 679 ft | 10 kts | 104° |
| 2026-05-07 19:05 | 60.19921 | 11.10387 | 677 ft | 12 kts | 106° |
| 2026-05-07 19:05 | 60.19898 | 11.10550 | 680 ft | 12 kts | 106° |
| 2026-05-07 19:05 | 60.19871 | 11.10726 | 680 ft | 14 kts | 107° |
| 2026-05-07 19:06 | 60.19841 | 11.10931 | 681 ft | 17 kts | 104° |
| 2026-05-07 19:06 | 60.19771 | 11.11390 | 680 ft | 15 kts | 125° |
| 2026-05-07 19:06 | 60.19728 | 11.11598 | 681 ft | 17 kts | 105° |
| 2026-05-07 19:07 | 60.19681 | 11.11838 | 682 ft | 20 kts | 128° |
| 2026-05-07 19:07 | 60.19615 | 11.11950 | 683 ft | 9 kts | 175° |
| 2026-05-07 19:07 | 60.19516 | 11.11893 | 679 ft | 34 kts | 196° |
| 2026-05-07 19:07 | 60.19077 | 11.11643 | 680 ft | 95 kts | 196° |
| 2026-05-07 19:08 | 60.18247 | 11.11165 | 688 ft | 150 kts | 194° |
| 2026-05-07 19:08 | 60.17259 | 11.10611 | 1278 ft | 147 kts | 194° |
| 2026-05-07 19:08 | 60.16282 | 11.10058 | 1963 ft | 145 kts | 194° |
| 2026-05-07 19:08 | 60.15311 | 11.09537 | 2541 ft | 150 kts | 194° |
| 2026-05-07 19:09 | 60.14253 | 11.09017 | 2947 ft | 164 kts | 187° |
| 2026-05-07 19:09 | 60.13081 | 11.09284 | 3413 ft | 178 kts | 160° |
| 2026-05-07 19:09 | 60.12087 | 11.10895 | 3834 ft | 196 kts | 124° |
| 2026-05-07 19:09 | 60.11256 | 11.13300 | 4159 ft | 225 kts | 130° |
| 2026-05-07 19:10 | 60.10176 | 11.15796 | 4745 ft | 246 kts | 134° |
| 2026-05-07 19:10 | 60.08920 | 11.18319 | 5505 ft | 262 kts | 136° |
| 2026-05-07 19:10 | 60.07598 | 11.20895 | 6482 ft | 268 kts | 136° |
| 2026-05-07 19:10 | 60.06175 | 11.23277 | 7394 ft | 274 kts | 147° |
| 2026-05-07 19:11 | 60.04502 | 11.25156 | 8349 ft | 278 kts | 155° |
| 2026-05-07 19:11 | 60.02738 | 11.26817 | 9310 ft | 283 kts | 157° |
| 2026-05-07 19:11 | 60.00887 | 11.28193 | 10196 ft | 287 kts | 173° |
| 2026-05-07 19:11 | 59.98856 | 11.27920 | 10627 ft | 302 kts | 193° |
| 2026-05-07 19:12 | 59.96733 | 11.27939 | 11446 ft | 312 kts | 172° |
| 2026-05-07 19:12 | 59.94619 | 11.29483 | 11779 ft | 337 kts | 156° |
| 2026-05-07 19:12 | 59.92501 | 11.31728 | 12212 ft | 355 kts | 154° |
| 2026-05-07 19:12 | 59.90301 | 11.34156 | 12369 ft | 377 kts | 153° |
| 2026-05-07 19:13 | 59.88034 | 11.37199 | 12504 ft | 401 kts | 139° |
| 2026-05-07 19:13 | 59.86273 | 11.41528 | 12909 ft | 415 kts | 126° |
| 2026-05-07 19:13 | 59.84637 | 11.46315 | 13523 ft | 420 kts | 125° |
| 2026-05-07 19:13 | 59.82991 | 11.51157 | 14123 ft | 426 kts | 125° |
| 2026-05-07 19:14 | 59.81328 | 11.56065 | 14666 ft | 430 kts | 125° |
| 2026-05-07 19:14 | 59.79651 | 11.61026 | 15203 ft | 435 kts | 125° |
| 2026-05-07 19:14 | 59.77961 | 11.66037 | 15728 ft | 439 kts | 126° |
| 2026-05-07 19:14 | 59.76110 | 11.70862 | 16228 ft | 440 kts | 136° |
| 2026-05-07 19:15 | 59.73713 | 11.74596 | 16727 ft | 439 kts | 153° |
| 2026-05-07 19:15 | 59.70909 | 11.76883 | 17246 ft | 436 kts | 169° |
| 2026-05-07 19:15 | 59.67922 | 11.77753 | 17750 ft | 435 kts | 178° |
| 2026-05-07 19:15 | 59.64944 | 11.78347 | 18254 ft | 437 kts | 178° |
| 2026-05-07 19:16 | 59.61902 | 11.78931 | 18683 ft | 441 kts | 178° |
| 2026-05-07 19:16 | 59.58838 | 11.79520 | 19101 ft | 444 kts | 178° |
| 2026-05-07 19:16 | 59.55753 | 11.80120 | 19501 ft | 447 kts | 178° |
| 2026-05-07 19:16 | 59.52648 | 11.80736 | 19892 ft | 450 kts | 178° |
| 2026-05-07 19:17 | 59.49517 | 11.81365 | 20275 ft | 454 kts | 178° |
| 2026-05-07 19:17 | 59.46367 | 11.81999 | 20638 ft | 457 kts | 178° |
| 2026-05-07 19:17 | 59.43194 | 11.82638 | 20989 ft | 460 kts | 178° |
| 2026-05-07 19:17 | 59.40000 | 11.83284 | 21338 ft | 463 kts | 178° |
| 2026-05-07 19:18 | 59.36788 | 11.83925 | 21658 ft | 466 kts | 178° |
| 2026-05-07 19:18 | 59.33599 | 11.84551 | 21936 ft | 468 kts | 178° |
| 2026-05-07 19:18 | 59.30352 | 11.85183 | 22262 ft | 470 kts | 178° |
| 2026-05-07 19:18 | 59.27085 | 11.85823 | 22571 ft | 473 kts | 178° |
| 2026-05-07 19:19 | 59.23801 | 11.86467 | 22882 ft | 476 kts | 178° |
| 2026-05-07 19:19 | 59.20501 | 11.87109 | 23176 ft | 478 kts | 178° |
| 2026-05-07 19:19 | 59.17182 | 11.87755 | 23456 ft | 481 kts | 178° |
| 2026-05-07 19:19 | 59.13848 | 11.88401 | 23810 ft | 480 kts | 178° |
| 2026-05-07 19:20 | 59.10587 | 11.89049 | 24930 ft | 458 kts | 178° |
| 2026-05-07 19:20 | 59.07512 | 11.89674 | 26402 ft | 434 kts | 179° |
| 2026-05-07 19:20 | 59.04540 | 11.90266 | 27318 ft | 426 kts | 179° |
| 2026-05-07 19:20 | 59.01605 | 11.90832 | 28045 ft | 422 kts | 179° |
| 2026-05-07 19:21 | 58.98692 | 11.91385 | 28684 ft | 421 kts | 179° |
| 2026-05-07 19:21 | 58.95790 | 11.91931 | 28912 ft | 429 kts | 179° |
| 2026-05-07 19:21 | 58.92802 | 11.92491 | 29321 ft | 433 kts | 179° |
| 2026-05-07 19:21 | 58.89803 | 11.93061 | 29883 ft | 433 kts | 179° |
| 2026-05-07 19:22 | 58.86807 | 11.93634 | 30439 ft | 432 kts | 179° |
| 2026-05-07 19:22 | 58.83819 | 11.94211 | 30952 ft | 431 kts | 179° |
| 2026-05-07 19:22 | 58.80835 | 11.94782 | 31455 ft | 431 kts | 179° |
| 2026-05-07 19:22 | 58.77854 | 11.95353 | 31967 ft | 430 kts | 179° |
| 2026-05-07 19:23 | 58.74878 | 11.95921 | 32470 ft | 429 kts | 179° |
| 2026-05-07 19:23 | 58.71953 | 11.96483 | 33007 ft | 428 kts | 179° |
| 2026-05-07 19:23 | 58.68994 | 11.97049 | 33535 ft | 427 kts | 179° |
| 2026-05-07 19:23 | 58.66040 | 11.97612 | 34036 ft | 426 kts | 179° |
| 2026-05-07 19:24 | 58.63093 | 11.98174 | 34463 ft | 426 kts | 179° |
| 2026-05-07 19:24 | 58.60147 | 11.98734 | 34879 ft | 424 kts | 179° |
| 2026-05-07 19:24 | 58.57215 | 11.99287 | 35303 ft | 423 kts | 179° |
| 2026-05-07 19:24 | 58.54315 | 11.99836 | 36002 ft | 410 kts | 179° |
| 2026-05-07 19:25 | 58.51525 | 12.00374 | 36763 ft | 398 kts | 179° |
| 2026-05-07 19:25 | 58.48768 | 12.00898 | 37040 ft | 399 kts | 179° |
| 2026-05-07 19:25 | 58.43204 | 12.01916 | 37153 ft | 411 kts | 178° |
| 2026-05-07 19:26 | 58.37393 | 12.02978 | 37149 ft | 427 kts | 178° |
| 2026-05-07 19:26 | 58.31376 | 12.04098 | 37147 ft | 442 kts | 178° |
| 2026-05-07 19:27 | 58.25162 | 12.05251 | 37147 ft | 455 kts | 178° |
| 2026-05-07 19:27 | 58.18841 | 12.06657 | 37147 ft | 459 kts | 175° |
| 2026-05-07 19:28 | 58.12556 | 12.08421 | 37152 ft | 460 kts | 174° |
| 2026-05-07 19:28 | 58.06222 | 12.10211 | 37155 ft | 460 kts | 175° |
| 2026-05-07 19:29 | 57.99887 | 12.11894 | 37156 ft | 460 kts | 175° |
| 2026-05-07 19:29 | 57.93547 | 12.13518 | 37161 ft | 460 kts | 175° |
| 2026-05-07 19:30 | 57.87203 | 12.15138 | 37145 ft | 460 kts | 175° |
| 2026-05-07 19:30 | 57.80908 | 12.16772 | 37154 ft | 460 kts | 175° |
| 2026-05-07 19:31 | 57.74569 | 12.18415 | 37156 ft | 460 kts | 175° |
| 2026-05-07 19:31 | 57.68234 | 12.20049 | 37124 ft | 460 kts | 175° |
| 2026-05-07 19:32 | 57.61892 | 12.21691 | 37143 ft | 460 kts | 174° |
| 2026-05-07 19:32 | 57.55591 | 12.23308 | 37135 ft | 460 kts | 174° |
| 2026-05-07 19:33 | 57.49244 | 12.24918 | 37144 ft | 460 kts | 174° |
| 2026-05-07 19:33 | 57.42896 | 12.26518 | 37148 ft | 460 kts | 174° |
| 2026-05-07 19:34 | 57.39718 | 12.27321 | 37018 ft | 461 kts | 174° |
| 2026-05-07 19:34 | 57.36546 | 12.28125 | 36748 ft | 460 kts | 174° |
| 2026-05-07 19:34 | 57.33371 | 12.28926 | 36489 ft | 461 kts | 174° |
| 2026-05-07 19:34 | 57.30192 | 12.29728 | 36217 ft | 461 kts | 174° |
| 2026-05-07 19:35 | 57.27007 | 12.30532 | 35963 ft | 462 kts | 173° |
| 2026-05-07 19:35 | 57.23821 | 12.31337 | 35699 ft | 462 kts | 173° |
| 2026-05-07 19:35 | 57.20667 | 12.32130 | 34940 ft | 466 kts | 173° |
| 2026-05-07 19:35 | 57.17439 | 12.32934 | 34097 ft | 470 kts | 173° |
| 2026-05-07 19:36 | 57.14175 | 12.33742 | 33067 ft | 475 kts | 173° |
| 2026-05-07 19:36 | 57.10897 | 12.34557 | 32150 ft | 477 kts | 173° |
| 2026-05-07 19:36 | 57.07611 | 12.35377 | 31301 ft | 476 kts | 173° |
| 2026-05-07 19:36 | 57.04310 | 12.36201 | 30297 ft | 480 kts | 174° |
| 2026-05-07 19:37 | 57.01011 | 12.37025 | 29290 ft | 478 kts | 173° |
| 2026-05-07 19:37 | 56.97708 | 12.37847 | 28082 ft | 480 kts | 173° |
| 2026-05-07 19:37 | 56.94392 | 12.38667 | 26991 ft | 481 kts | 173° |
| 2026-05-07 19:37 | 56.91081 | 12.39481 | 25951 ft | 479 kts | 173° |
| 2026-05-07 19:38 | 56.87776 | 12.40291 | 24842 ft | 479 kts | 173° |
| 2026-05-07 19:38 | 56.84478 | 12.41098 | 23924 ft | 476 kts | 173° |
| 2026-05-07 19:38 | 56.81266 | 12.41882 | 23062 ft | 469 kts | 173° |
| 2026-05-07 19:38 | 56.78061 | 12.42667 | 22281 ft | 459 kts | 173° |
| 2026-05-07 19:39 | 56.74922 | 12.43435 | 21507 ft | 451 kts | 173° |
| 2026-05-07 19:39 | 56.71834 | 12.44191 | 20741 ft | 444 kts | 173° |
| 2026-05-07 19:39 | 56.68796 | 12.44936 | 19988 ft | 437 kts | 173° |
| 2026-05-07 19:39 | 56.65803 | 12.45669 | 19260 ft | 430 kts | 173° |
| 2026-05-07 19:40 | 56.62858 | 12.46390 | 18563 ft | 424 kts | 173° |
| 2026-05-07 19:40 | 56.59956 | 12.47097 | 17836 ft | 417 kts | 173° |
| 2026-05-07 19:40 | 56.57111 | 12.47785 | 17243 ft | 408 kts | 173° |
| 2026-05-07 19:40 | 56.54353 | 12.48450 | 16633 ft | 402 kts | 173° |
| 2026-05-07 19:41 | 56.51600 | 12.49114 | 16040 ft | 396 kts | 173° |
| 2026-05-07 19:41 | 56.48885 | 12.49740 | 15436 ft | 392 kts | 176° |
| 2026-05-07 19:41 | 56.46168 | 12.49521 | 14806 ft | 390 kts | 189° |
| 2026-05-07 19:41 | 56.43482 | 12.48826 | 13792 ft | 394 kts | 189° |
| 2026-05-07 19:42 | 56.40738 | 12.48086 | 13159 ft | 402 kts | 189° |
| 2026-05-07 19:42 | 56.37959 | 12.47332 | 12900 ft | 404 kts | 189° |
| 2026-05-07 19:42 | 56.35178 | 12.46582 | 12641 ft | 404 kts | 189° |
| 2026-05-07 19:42 | 56.32404 | 12.45836 | 12374 ft | 402 kts | 189° |
| 2026-05-07 19:43 | 56.29641 | 12.45092 | 12112 ft | 401 kts | 189° |
| 2026-05-07 19:43 | 56.26923 | 12.44360 | 11858 ft | 400 kts | 188° |
| 2026-05-07 19:43 | 56.24178 | 12.43622 | 11618 ft | 398 kts | 188° |
| 2026-05-07 19:43 | 56.21431 | 12.42887 | 11489 ft | 401 kts | 188° |
| 2026-05-07 19:44 | 56.18665 | 12.42153 | 11358 ft | 402 kts | 188° |
| 2026-05-07 19:44 | 56.15899 | 12.41425 | 11175 ft | 401 kts | 188° |
| 2026-05-07 19:44 | 56.13142 | 12.40698 | 10922 ft | 400 kts | 188° |
| 2026-05-07 19:44 | 56.10394 | 12.39970 | 10672 ft | 399 kts | 188° |
| 2026-05-07 19:45 | 56.07656 | 12.39242 | 10429 ft | 397 kts | 188° |
| 2026-05-07 19:45 | 56.04960 | 12.38527 | 10186 ft | 396 kts | 188° |
| 2026-05-07 19:45 | 56.02242 | 12.37803 | 10013 ft | 395 kts | 188° |
| 2026-05-07 19:45 | 55.99528 | 12.37084 | 9879 ft | 394 kts | 188° |
| 2026-05-07 19:46 | 55.96814 | 12.36368 | 9746 ft | 394 kts | 188° |
| 2026-05-07 19:46 | 55.94103 | 12.35659 | 9606 ft | 393 kts | 187° |
| 2026-05-07 19:46 | 55.91397 | 12.34953 | 9472 ft | 393 kts | 187° |
| 2026-05-07 19:46 | 55.88696 | 12.34250 | 9335 ft | 392 kts | 187° |
| 2026-05-07 19:47 | 55.86004 | 12.33549 | 9205 ft | 391 kts | 187° |
| 2026-05-07 19:47 | 55.83308 | 12.32843 | 9072 ft | 391 kts | 187° |
| 2026-05-07 19:47 | 55.80625 | 12.32133 | 8939 ft | 390 kts | 188° |
| 2026-05-07 19:47 | 55.77946 | 12.31424 | 8685 ft | 387 kts | 188° |
| 2026-05-07 19:48 | 55.75284 | 12.30725 | 8454 ft | 388 kts | 188° |
| 2026-05-07 19:48 | 55.72653 | 12.30040 | 8043 ft | 386 kts | 188° |
| 2026-05-07 19:48 | 55.70001 | 12.29357 | 7629 ft | 384 kts | 188° |
| 2026-05-07 19:48 | 55.67387 | 12.28686 | 7097 ft | 374 kts | 188° |
| 2026-05-07 19:49 | 55.64828 | 12.28030 | 6287 ft | 369 kts | 188° |
| 2026-05-07 19:49 | 55.62305 | 12.27379 | 5409 ft | 365 kts | 188° |
| 2026-05-07 19:49 | 55.59802 | 12.26731 | 4529 ft | 361 kts | 188° |
| 2026-05-07 19:49 | 55.57322 | 12.26216 | 3682 ft | 357 kts | 181° |
| 2026-05-07 19:50 | 55.54864 | 12.26473 | 2860 ft | 352 kts | 175° |
| 2026-05-07 19:50 | 55.52481 | 12.26812 | 2585 ft | 333 kts | 175° |
| 2026-05-07 19:50 | 55.50232 | 12.27137 | 2324 ft | 316 kts | 175° |
| 2026-05-07 19:50 | 55.48068 | 12.27454 | 2088 ft | 309 kts | 174° |
| 2026-05-07 19:51 | 55.46045 | 12.28449 | 1989 ft | 307 kts | 151° |
| 2026-05-07 19:51 | 55.44433 | 12.30869 | 2006 ft | 307 kts | 126° |
| 2026-05-07 19:51 | 55.43556 | 12.34256 | 2004 ft | 306 kts | 100° |
| 2026-05-07 19:51 | 55.43574 | 12.37956 | 2004 ft | 302 kts | 77° |
| 2026-05-07 19:52 | 55.44333 | 12.41231 | 2001 ft | 280 kts | 53° |
| 2026-05-07 19:52 | 55.45750 | 12.43338 | 2002 ft | 260 kts | 21° |
| 2026-05-07 19:52 | 55.47447 | 12.44077 | 2005 ft | 244 kts | 10° |
| 2026-05-07 19:52 | 55.49003 | 12.44970 | 2002 ft | 229 kts | 28° |
| 2026-05-07 19:53 | 55.50249 | 12.46548 | 2007 ft | 212 kts | 39° |
| 2026-05-07 19:53 | 55.51317 | 12.48177 | 1996 ft | 195 kts | 40° |
| 2026-05-07 19:53 | 55.52305 | 12.49703 | 1869 ft | 183 kts | 40° |
| 2026-05-07 19:53 | 55.53237 | 12.51138 | 1630 ft | 177 kts | 40° |
| 2026-05-07 19:54 | 55.54150 | 12.52542 | 1396 ft | 171 kts | 40° |
| 2026-05-07 19:54 | 55.55011 | 12.53868 | 1180 ft | 153 kts | 39° |
| 2026-05-07 19:54 | 55.55762 | 12.55025 | 972 ft | 136 kts | 39° |
| 2026-05-07 19:54 | 55.56460 | 12.56099 | 784 ft | 131 kts | 39° |
| 2026-05-07 19:55 | 55.57139 | 12.57144 | 606 ft | 129 kts | 40° |
| 2026-05-07 19:55 | 55.57808 | 12.58184 | 433 ft | 128 kts | 39° |
| 2026-05-07 19:55 | 55.58476 | 12.59207 | 272 ft | 127 kts | 40° |
| 2026-05-07 19:55 | 55.59137 | 12.60233 | 100 ft | 125 kts | 40° |
| 2026-05-07 19:56 | 55.59772 | 12.61205 | 18 ft | 109 kts | 40° |
| 2026-05-07 19:56 | 55.60118 | 12.61741 | 24 ft | 27 kts | 40° |
| 2026-05-07 19:56 | 55.60287 | 12.61999 | 20 ft | 35 kts | 40° |
| 2026-05-07 19:56 | 55.60454 | 12.62234 | 21 ft | 22 kts | 32° |
| 2026-05-07 19:57 | 55.60603 | 12.62333 | 25 ft | 24 kts | 14° |
| 2026-05-07 19:57 | 55.60754 | 12.62390 | 23 ft | 15 kts | 17° |
| 2026-05-07 19:57 | 55.60829 | 12.62461 | 23 ft | 11 kts | 37° |
| 2026-05-07 19:57 | 55.60897 | 12.62567 | 20 ft | 16 kts | 41° |
| 2026-05-07 19:58 | 55.60997 | 12.62716 | 19 ft | 20 kts | 40° |
| 2026-05-07 19:58 | 55.61114 | 12.62902 | 20 ft | 24 kts | 40° |
| 2026-05-07 19:58 | 55.61200 | 12.63031 | 21 ft | 26 kts | 41° |
| 2026-05-07 19:58 | 55.61345 | 12.63254 | 22 ft | 30 kts | 41° |
| 2026-05-07 19:59 | 55.61519 | 12.63522 | 17 ft | 37 kts | 41° |
| 2026-05-07 19:59 | 55.61692 | 12.63789 | 19 ft | 27 kts | 41° |
| 2026-05-07 19:59 | 55.61867 | 12.64062 | 21 ft | 24 kts | 37° |
| 2026-05-07 19:59 | 55.62033 | 12.64205 | 21 ft | 30 kts | 24° |
| 2026-05-07 20:00 | 55.62192 | 12.64342 | 16 ft | 19 kts | 26° |
| 2026-05-07 20:00 | 55.62252 | 12.64430 | 19 ft | 16 kts | 56° |
| 2026-05-07 20:00 | 55.62298 | 12.64598 | 20 ft | 15 kts | 61° |
| 2026-05-07 20:00 | 55.62372 | 12.64678 | 22 ft | 12 kts | 7° |
| 2026-05-07 20:01 | 55.62451 | 12.64669 | 22 ft | 11 kts | 353° |
| 2026-05-07 20:01 | 55.62535 | 12.64652 | 20 ft | 14 kts | 359° |
| 2026-05-07 20:01 | 55.62630 | 12.64645 | 20 ft | 13 kts | 325° |
| 2026-05-07 20:01 | 55.62648 | 12.64553 | 22 ft | 0 kts | 281° |
| 2026-05-07 20:02 | 55.62649 | 12.64552 | 22 ft | 0 kts | 283° |